AirNav   Everest Fuels
 
 1638 users online  

84WA D and B Airpark
Elma, Washington, USA

GOING TO ELMA?


FAA INFORMATION EFFECTIVE 18 JULY 2019

Location

FAA Identifier: 84WA
Lat/Long: 46-58-22.3470N / 123-23-03.5640W
46-58.372450N / 123-23.059400W
46.9728742 / -123.3843233
(estimated)
Elevation: 55 ft. / 17 m (estimated)
Variation: 20E (1985)
From city: 3 miles SE of ELMA, WA
Time zone: UTC -7 (UTC -8 during Standard Time)
Zip code: 98541

Airport Operations

Airport use: Private use. Permission required prior to landing
Activation date: 06/1979
Control tower: no
ARTCC: SEATTLE CENTER
FSS: SEATTLE FLIGHT SERVICE STATION
Attendance: UNATNDD
Wind indicator: yes
Segmented circle: no

Airport Communications

WX ASOS at SHN (18 nm NE): 119.275 (360-427-3835)
WX ASOS at OLM (20 nm E): 135.725 (360-754-0781)

Nearby radio navigation aids

VOR radial/distance  VOR name  Freq  Var
OLMr251/19.8OLYMPIA VORTAC113.4019E
HQMr068/31.4HOQUIAM VORTAC117.7019E
TCMr239/38.6MCCHORD VORTAC109.6015E

 
NDB name  Hdg/Dist  Freq  Var  ID
MASON COUNTY197/20.534819EMNC -- -. -.-.
LACOMAS250/33.932816ELAC .-.. .- -.-.

Airport Services

Airframe service: MINOR
Powerplant service: MINOR

Runway Information

Runway 11/29

Dimensions: 1800 x 50 ft. / 549 x 15 m
Surface: turf
RUNWAY 11  RUNWAY 29
Traffic pattern: leftleft
Obstructions: plinesnone

Airport Ownership and Management from official FAA records

Ownership: Privately-owned
Owner: RICHARD G CABE
289 SOUTH BANK ROAD
ELMA, WA 98541
Phone 206-482-3494
Manager: RICHARD G CABE
289 SOUTH BANK ROAD
ELMA, WA 98541
Phone 206-482-3494

Airport Operational Statistics

Aircraft based on the field: 5
Single engine airplanes: 5
    

Additional Remarks

FOR CD CTC SEATTLE ARTCC AT 253-351-3694.

Instrument Procedures

There are no published instrument procedures at 84WA.

Some nearby airports with instrument procedures:

KSHN - Sanderson Field Airport (18 nm NE)
KOLM - Olympia Regional Airport (20 nm E)
KHQM - Bowerman Airport (23 nm W)
KCLS - Chehalis-Centralia Airport (24 nm SE)
KGRF - Gray Army Airfield (Joint Base Lewis-McChord) (33 nm E)
 
Loc | Ops | Rwys | IFR | FBO | Links
Com | Nav | Svcs | Stats | Notes
Area around 84WA (D and B Airpark)
 
Road maps at: MapQuest Bing Google
 
Aerial photo
No photo
 
Sectional chart

 
Airport distance calculator
Flying to D and B Airpark? Find the distance to fly.

From to 84WA

Sunrise and sunset
Times for 18-Jul-2019
 Local
(UTC-7)
 Zulu
(UTC)
Morning civil twilight05:0012:00
Sunrise05:3812:38
Sunset21:0204:02
Evening civil twilight21:3904:39

Current date and time
Zulu (UTC)  18-Jul-2019 18:04:40
Local (UTC-7)  18-Jul-2019 11:04:40
 
METAR
KSHN 
19nm NE 
181753Z AUTO VRB04KT 10SM BKN029 BKN037 18/11 A3003 RMK AO2 SLP168 60002 T01780106 10189 20122 50004
KOLM 
20nm E 
181754Z VRB03KT 10SM FEW033 SCT041 BKN050 18/09 A3005 RMK AO2 SLP176 T01780094 10178 20122 51004
KHQM 
22nm W 
181753Z AUTO 28006KT 8SM BKN065 18/12 A3008 RMK AO2 SLP189 60000 T01780122 10178 20133 51007
KCLS 
24nm SE 
181755Z AUTO VRB05G10KT 10SM SCT046 SCT050 20/11 A3006 RMK AO2
KGRF 
34nm E 
181656Z AUTO 18005KT 10SM BKN016 OVC023 15/15 A3005 RMK AO2 SLP179 T01490147 $
KTIW 
37nm NE 
181753Z 20003KT 10SM SCT007 BKN011 BKN014 14/12 A3007 RMK AO2 SLP182 60000 T01390117 10144 20122 53010
TAF
KOLM 
20nm E 
181737Z 1818/1918 24010KT P6SM SCT030 BKN070 FM190200 26012KT P6SM OVC100 FM190700 VRB03KT P6SM SCT100 FM191200 20003KT P6SM BKN050
KHQM 
22nm W 
181737Z 1818/1918 30012KT P6SM SCT025 BKN070 FM190300 28009KT P6SM OVC050 FM190800 28005KT P6SM BKN030
NOTAMs
Click for the latest NOTAMs
NOTAMs are issued by the DoD/FAA and will open in a separate window not controlled by AirNav.

 

 
 

Would you like to see your business listed on this page?

 If your business provides an interesting product or service to pilots, flight crews, aircraft, or users of the D and B Airpark, you should consider listing it here.  To start the listing process, click on the button below
 
Add a business
 

Other Pages about D and B Airpark

Update a link
 
Copyright © AirNav, LLC. All rights reserved. Privacy Policy  Contact